Latest Coastal Weather Observations for Cooktown

IDQ60701

Issued at 5:41 pm EST Tuesday 28 February 2017 (issued every 10 minutes, with the page automatically refreshed every 10 minutes)

About coastal observations | Map of coastal stations | Coastal observations for QLD | Marine services | Other Formats
Station Details ID: 031209 Name: COOKTOWN AIRPORT Lat: -15.45 Lon: 145.19 Height: 4.8 m
Data from the previous 72 hours. | See also: Recent months at Cooktown
Date/Time
EST
Temp
°C
Wind Pressure Rain since
9am
mm
Weather Cloud Vis
km
Sea
Height
m
Swell
Dir  Spd
kts
Gust
kts
hPa Trend Height
m
Period
s
Dir
28/05:37pm 25.5 ESE 15 18 1008.6 - 1.2 - Partly cloudy 5 - - - -
28/05:30pm 25.7 SE 8 13 1008.3 - 1.0 - Partly cloudy 10 - - - -
28/05:19pm 26.0 SE 10 13 1008.2 - 0.8 - Partly cloudy 10 - - - -
28/05:01pm 27.3 SE 10 19 1008.1 - 0.8 - Partly cloudy 5 - - - -
28/05:00pm 28.0 SE 9 19 1008.1 - 0.6 - Partly cloudy 9 - - - -
28/04:30pm 29.6 SE 11 18 1007.5 - 0.4 - Partly cloudy 10 - - - -
28/04:00pm 29.3 ESE 10 14 1007.6 - 0.4 - Partly cloudy 10 - - - -
28/03:30pm 30.6 SE 13 21 1007.7 - 0.4 - Partly cloudy 10 - - - -
28/03:00pm 30.4 ESE 13 21 1007.7 - 0.4 - Mostly clear 10 - - - -
28/02:00pm 30.4 ESE 15 24 1008.2 - 0.2 - Partly cloudy 10 - - - -
28/01:30pm 30.6 SE 12 19 1008.5 - 0.2 - Partly cloudy 10 - - - -
28/01:00pm 29.7 ESE 13 19 1008.9 - 0.2 - Partly cloudy 10 - - - -
28/12:30pm 29.5 ESE 13 19 1009.4 - 0.2 - Partly cloudy 10 - - - -
28/12:00pm 29.8 ESE 11 16 1009.5 - 0.2 - Cloudy 10 - - - -
28/11:30am 29.7 SE 12 21 1009.8 - 0.2 - Partly cloudy 10 - - - -
28/11:00am 29.9 SE 12 18 1010.0 - 0.2 - Partly cloudy 10 - - - -
28/10:30am 30.0 SE 12 21 1009.9 - 0.2 - Partly cloudy 10 - - - -
28/10:00am 29.9 ESE 13 19 1010.1 - 0.2 - Partly cloudy 10 - - - -
28/09:30am 30.0 ESE 12 19 1010.1 - 0.2 - Partly cloudy 10 - - - -
28/09:00am 28.8 ESE 8 15 1009.9 R 21.2 Fine Partly cloudy 35 - - - -
28/08:30am 28.4 SE 10 17 1009.8 - 21.2 - Partly cloudy 10 - - - -
28/08:00am 28.8 ESE 9 16 1009.5 - 21.2 - Partly cloudy 10 - - - -
28/07:30am 27.5 SE 6 10 1009.2 - 21.2 - Partly cloudy 10 - - - -
28/07:00am 27.7 SE 11 19 1008.8 - 21.2 - Partly cloudy 10 - - - -
28/06:30am 27.3 ESE 10 15 1008.6 - 21.2 - Partly cloudy 10 - - - -
28/06:00am 26.9 SE 7 14 1008.4 - 21.2 - Mostly cloudy 10 - - - -
28/05:30am 26.7 SE 7 13 1008.2 - 21.2 - Partly cloudy 10 - - - -
28/05:00am 27.0 SE 8 11 1008.0 - 21.2 - Partly cloudy 10 - - - -
28/04:30am 27.3 SE 10 15 1007.9 - 21.2 - - 10 - - - -
28/04:00am 27.4 ESE 9 13 1007.9 - 21.2 - Partly cloudy 10 - - - -
28/03:30am 27.5 ESE 8 11 1008.0 - 21.2 - Partly cloudy 10 - - - -
28/03:00am 27.4 SE 9 19 1008.2 - 21.2 - Partly cloudy 10 - - - -
28/02:30am 27.4 ESE 9 15 1008.6 - 21.2 - Partly cloudy 10 - - - -
28/02:00am 27.4 SE 9 14 1008.7 - 21.2 - Partly cloudy 10 - - - -
28/01:30am 27.4 SE 8 13 1009.0 - 21.2 - Partly cloudy 10 - - - -
28/01:00am 27.6 SE 9 13 1009.4 - 21.2 - Partly cloudy 10 - - - -
28/12:30am 27.5 ESE 9 13 1009.8 - 21.2 - Partly cloudy 10 - - - -
28/12:00am 27.8 ESE 9 17 1009.9 - 21.2 - Mostly clear 10 - - - -
 
Date/Time
EST
Temp
°C
Wind Pressure Rain since
9am
mm
Weather Cloud Vis
km
Sea
Height
m
Swell
Dir  Spd
kts
Gust
kts
hPa Trend Height
m
Period
s
Dir
27/11:30pm 27.4 SE 8 10 1010.3 - 21.2 - Partly cloudy 10 - - - -
27/11:00pm 27.8 ESE 10 17 1010.5 - 21.2 - Partly cloudy 10 - - - -
27/10:30pm 27.0 SE 7 14 1010.3 - 21.2 - Partly cloudy 10 - - - -
27/10:00pm 26.8 ESE 8 11 1010.2 - 21.2 - - 10 - - - -
27/09:30pm 26.4 SE 11 19 1010.2 - 21.2 - Partly cloudy 10 - - - -
27/09:00pm 24.0 W 1 5 1009.7 - 21.2 - Mostly clear 10 - - - -
27/08:30pm 24.2 WSW 4 7 1009.6 - 21.2 - Partly cloudy 10 - - - -
27/08:00pm 24.3 CALM 0 3 1009.4 - 21.2 - - 10 - - - -
27/07:30pm 24.9 E 8 11 1009.3 - 21.2 - Partly cloudy 10 - - - -
27/07:00pm 25.8 SE 4 5 1008.8 - 21.2 - Partly cloudy 10 - - - -
27/06:30pm 26.5 ESE 4 5 1008.7 - 21.2 - - 10 - - - -
27/06:00pm 27.2 ESE 6 7 1008.6 - 21.2 - - 10 - - - -
27/05:30pm 27.6 SE 7 10 1008.5 - 21.2 - - 10 - - - -
27/05:00pm 27.7 ESE 8 11 1008.4 - 21.2 - - 10 - - - -
27/04:30pm 27.5 SE 8 11 1008.5 - 21.2 - - 10 - - - -
27/04:00pm 27.0 SE 5 7 1008.4 - 21.2 - - 10 - - - -
27/03:30pm 27.0 SE 5 8 1008.2 - 21.2 - - 10 - - - -
27/03:00pm 27.0 S 5 8 1008.6 - 21.2 - - 10 - - - -
27/02:30pm 25.7 S 5 7 1009.2 - 21.2 - - 10 - - - -
27/02:00pm 24.1 SSW 4 6 1009.5 - 21.0 - Partly cloudy 10 - - - -
27/01:35pm 23.2 SSE 7 12 1010.1 - 21.0 - Partly cloudy 9 - - - -
27/01:30pm 23.0 SSE 7 12 1010.1 - 20.8 - Partly cloudy 9 - - - -
27/01:00pm 22.9 SE 11 16 1010.9 - 15.0 - Partly cloudy 3 - - - -
27/12:41pm 23.2 SE 12 19 1010.9 - 12.2 - Partly cloudy 3 - - - -
27/12:31pm 23.0 SSE 17 28 1010.8 - 11.2 - Partly cloudy 0.5 - - - -
27/12:30pm 22.9 SSE 17 28 1010.8 - 11.0 - Partly cloudy 0.5 - - - -
27/12:25pm 23.1 SSE 18 28 1010.9 - 9.0 - Partly cloudy 0.9 - - - -
27/12:23pm 23.7 SSE 20 28 1011.1 - 6.4 - Partly cloudy 2 - - - -
27/12:22pm 25.1 E 14 22 1011.1 - 5.0 - Partly cloudy 5 - - - -
27/12:00pm 27.5 ESE 11 14 1010.6 - 3.0 - Cloudy 10 - - - -
27/11:30am 27.3 ESE 6 11 1011.2 - 3.0 - Partly cloudy 10 - - - -
27/11:00am 26.3 SSE 6 9 1011.3 - 3.0 - Partly cloudy 10 - - - -
27/10:30am 25.2 SE 10 16 1011.6 - 3.0 - Partly cloudy 10 - - - -
27/10:21am 25.1 SE 8 14 1011.7 - 3.0 - Partly cloudy 9 - - - -
27/10:06am 24.6 SSE 12 18 1011.9 - 3.0 - Partly cloudy 10 - - - -
27/10:00am 24.5 SSE 12 20 1011.8 - 3.0 - Partly cloudy 7 - - - -
27/09:47am 24.4 SSE 13 20 1011.9 - 2.6 - Partly cloudy 5 - - - -
27/09:39am 24.6 SSE 8 13 1011.9 - 2.0 - Partly cloudy 10 - - - -
27/09:30am 24.7 SSE 7 11 1011.8 - 1.8 - Partly cloudy 7 - - - -
27/09:20am 24.8 SSE 10 14 1011.7 - 1.6 - Partly cloudy 4 - - - -
27/09:10am 26.4 ESE 9 14 1011.5 - 0.2 - Partly cloudy 9 - - - -
27/09:00am 26.1 ESE 7 13 1011.3 R 9.6 Rain Mostly cloudy 20 - - - -
27/08:30am 25.0 S 4 6 1011.2 - 9.4 - Partly cloudy 10 - - - -
27/08:13am 25.1 SE 9 13 1011.2 - 9.0 - Partly cloudy 10 - - - -
27/08:00am 25.1 SE 9 14 1011.0 - 9.0 - Partly cloudy 10 - - - -
27/07:46am 25.3 E 10 17 1010.7 - 9.0 - Partly cloudy 10 - - - -
27/07:40am 24.9 ESE 5 11 1010.5 - 9.0 - Partly cloudy 10 - - - -
27/07:30am 23.9 SSE 5 8 1010.3 - 9.0 - Partly cloudy 2 - - - -
27/07:17am 23.7 S 4 5 1010.2 - 6.6 - Partly cloudy 5 - - - -
27/07:00am 23.7 S 4 5 1010.0 - 6.0 - Partly cloudy 10 - - - -
27/06:30am 23.8 SSE 9 16 1009.9 - 6.0 - Partly cloudy 10 - - - -
27/06:00am 24.0 S 1 5 1009.2 - 5.6 - Cloudy 10 - - - -
27/05:39am 24.0 S 4 6 1009.0 - 5.6 - Partly cloudy 10 - - - -
27/05:30am 23.9 S 6 17 1008.9 - 5.6 - Partly cloudy 8 - - - -
27/05:20am 23.6 SSW 3 10 1008.9 - 5.4 - Partly cloudy 3 - - - -
27/05:00am 23.9 CALM 0 0 1008.5 - 4.2 - - 10 - - - -
27/04:30am 23.8 SSW 3 4 1008.4 - 4.2 - Partly cloudy 10 - - - -
27/04:00am 23.9 WNW 3 4 1008.4 - 4.2 - Partly cloudy 10 - - - -
27/03:30am 23.8 WSW 2 4 1008.3 - 4.2 - Partly cloudy 10 - - - -
27/03:00am 23.6 WSW 3 5 1008.0 - 4.2 - Partly cloudy 10 - - - -
27/02:30am 23.6 CALM 0 4 1008.2 - 4.0 - - 10 - - - -
27/02:00am 24.2 SE 5 7 1008.7 - 4.0 - Partly cloudy 10 - - - -
27/01:30am 24.8 SSE 10 13 1009.1 - 4.0 - Partly cloudy 10 - - - -
27/01:00am 24.6 W 3 5 1009.2 - 4.0 - Partly cloudy 10 - - - -
27/12:30am 24.6 W 3 5 1009.4 - 4.0 - Partly cloudy 10 - - - -
27/12:00am 24.9 E 4 5 1009.8 - 4.0 - Cloudy 10 - - - -
 
Date/Time
EST
Temp
°C
Wind Pressure Rain since
9am
mm
Weather Cloud Vis
km
Sea
Height
m
Swell
Dir  Spd
kts
Gust
kts
hPa Trend Height
m
Period
s
Dir
26/11:59pm 25.0 ESE 3 5 1009.8 - 4.0 - Partly cloudy 10 - - - -
26/11:38pm 24.6 N 5 9 1010.4 - 3.0 - Partly cloudy 3 - - - -
26/11:30pm 24.6 CALM 0 4 1010.0 - 1.2 - Partly cloudy 6 - - - -
26/11:00pm 24.7 CALM 0 0 1010.2 - 1.0 - Partly cloudy 10 - - - -
26/10:30pm 24.9 SSE 1 4 1010.3 - 1.0 - Partly cloudy 10 - - - -
26/10:00pm 24.9 SSE 4 7 1010.1 - 1.0 - Partly cloudy 10 - - - -
26/09:30pm 25.4 SE 14 23 1009.8 - 1.0 - Partly cloudy 7 - - - -
26/09:00pm 27.2 SE 8 11 1009.0 - 0.8 - Mostly cloudy 10 - - - -
26/08:30pm 27.0 SE 8 11 1008.9 - 0.8 - Partly cloudy 10 - - - -
26/08:00pm 26.7 SE 7 11 1008.7 - 0.8 - Partly cloudy 10 - - - -
26/07:32pm 26.4 SE 7 9 1008.2 - 0.8 - Partly cloudy 10 - - - -
26/07:30pm 26.4 SE 7 9 1008.2 - 0.8 - Partly cloudy 10 - - - -
26/07:15pm 26.8 SE 8 13 1008.1 - 0.8 - Partly cloudy 5 - - - -
26/07:00pm 27.5 SE 7 10 1007.9 - 0.2 - - 10 - - - -
26/06:30pm 27.9 SE 7 10 1007.8 - 0.2 - Partly cloudy 10 - - - -
26/06:00pm 28.4 SE 9 16 1007.4 - 0.2 - Mostly clear 10 - - - -
26/05:30pm 29.1 ESE 9 14 1007.5 - 0.2 - Partly cloudy 10 - - - -
26/05:00pm 29.2 ESE 9 14 1007.3 - 0.2 - - 10 - - - -
26/04:30pm 29.1 SE 10 21 1007.4 - 0.2 - Partly cloudy 10 - - - -
26/04:00pm 29.3 ESE 10 14 1007.2 - 0.2 - Partly cloudy 10 - - - -
26/03:30pm 29.2 SE 9 14 1007.1 - 0.2 - Cloudy 10 - - - -
26/03:00pm 29.2 ESE 10 16 1007.3 - 0.2 - Mostly cloudy 10 - - - -
26/02:30pm 29.9 SE 11 16 1007.6 - 0.2 - Partly cloudy 10 - - - -
26/02:00pm 29.6 ESE 11 17 1007.7 - 0.2 - Partly cloudy 10 - - - -
26/01:30pm 29.5 SE 10 15 1008.0 - 0.2 - - 10 - - - -
26/01:00pm 29.1 SE 9 14 1008.4 - 0.2 - Partly cloudy 10 - - - -
26/12:30pm 28.9 SE 10 17 1008.9 - 0.2 - Partly cloudy 10 - - - -
26/12:00pm 28.9 SE 9 13 1009.0 - 0.2 - Mostly cloudy 10 - - - -
26/11:30am 29.0 SE 10 14 1009.4 - 0.2 - Partly cloudy 10 - - - -
26/11:00am 29.1 SE 6 11 1009.5 - 0.2 - Partly cloudy 10 - - - -
26/10:30am 27.5 N 3 5 1009.4 - 0.2 - Partly cloudy 10 - - - -
26/10:00am 27.2 NNW 3 4 1009.4 - 0.0 - - 10 - - - -
26/09:30am 26.7 SSW 3 5 1009.4 - 0.0 - - 10 - - - -
26/09:00am 26.0 SW 3 5 1009.5 F 21.2 Fine Partly cloudy 30 - - - -
26/08:30am 24.8 WSW 3 4 1009.7 - 21.2 - - 10 - - - -
26/08:00am 23.6 NNW 4 5 1010.1 - 21.2 - - 10 - - - -
26/07:30am 23.2 CALM 0 2 1009.9 - 21.2 - Partly cloudy 10 - - - -
26/07:00am 23.1 NW 5 6 1009.8 - 21.2 - Partly cloudy 10 - - - -
26/06:30am 22.7 S 3 5 1009.8 - 21.2 - Partly cloudy 10 - - - -
26/06:00am 22.7 SW 1 4 1009.5 - 21.2 - Cloudy 10 - - - -
26/05:30am 22.6 WSW 3 5 1008.8 - 21.0 - Partly cloudy 10 - - - -
26/05:00am 22.6 CALM 0 0 1008.5 - 21.0 - Partly cloudy 10 - - - -
26/04:48am 22.5 CALM 0 0 1008.5 - 21.0 - Partly cloudy 10 - - - -
26/04:31am 22.4 ESE 5 13 1008.6 - 20.4 - Partly cloudy 3 - - - -
26/04:30am 22.4 ESE 5 13 1008.6 - 20.4 - Partly cloudy 3 - - - -
26/04:17am 23.5 E 6 10 1008.8 - 18.4 - Partly cloudy 2 - - - -
26/04:14am 23.5 NE 5 10 1008.8 - 17.6 - Partly cloudy 4 - - - -
26/04:00am 23.5 NW 4 6 1008.3 - 15.6 - Partly cloudy 10 - - - -
26/03:57am 23.6 W 3 5 1008.2 - 15.6 - Partly cloudy 10 - - - -
26/03:38am 23.5 NW 3 5 1008.2 - 15.4 - Partly cloudy 5 - - - -
26/03:30am 23.4 NW 4 5 1008.1 - 14.8 - Partly cloudy 10 - - - -
26/03:00am 23.4 WSW 3 4 1008.2 - 14.8 - Partly cloudy 10 - - - -
26/02:30am 23.4 SW 2 4 1008.4 - 14.6 - - 10 - - - -
26/02:14am 23.2 CALM 0 3 1008.5 - 14.6 - Partly cloudy 10 - - - -
26/02:09am 23.3 SW 2 4 1008.7 - 14.6 - Partly cloudy 10 - - - -
26/02:03am 23.4 ENE 2 4 1008.8 - 14.6 - Partly cloudy 8 - - - -
26/02:00am 23.4 NE 1 4 1008.9 - 14.6 - Partly cloudy 6 - - - -
26/01:57am 23.3 NNE 1 3 1008.9 - 14.6 - Partly cloudy 5 - - - -
26/01:53am 23.3 NNE 2 4 1009.0 - 14.6 - Partly cloudy 5 - - - -
26/01:50am 23.2 NNE 3 5 1009.0 - 14.2 - Partly cloudy 8 - - - -
26/01:41am 23.2 NE 3 5 1009.0 - 14.2 - Partly cloudy 6 - - - -
26/01:30am 22.8 NE 6 9 1009.2 - 14.0 - Partly cloudy 1 - - - -
26/01:22am 23.8 NNE 5 7 1009.4 - 10.6 - Partly cloudy 5 - - - -
26/01:00am 23.7 CALM 0 0 1009.4 - 9.8 - Partly cloudy 10 - - - -
26/12:30am 23.6 S 3 4 1010.0 - 9.8 - Partly cloudy 10 - - - -
26/12:00am 23.6 W 3 4 1010.6 - 9.4 - Cloudy 9 - - - -
 
Date/Time
EST
Temp
°C
Wind Pressure Rain since
9am
mm
Weather Cloud Vis
km
Sea
Height
m
Swell
Dir  Spd
kts
Gust
kts
hPa Trend Height
m
Period
s
Dir
25/11:41pm 23.5 NNW 3 4 1010.8 - 9.4 - Partly cloudy 9 - - - -
25/11:30pm 23.5 SSE 1 4 1010.9 - 9.2 - Partly cloudy 5 - - - -
25/11:22pm 23.6 S 2 5 1011.0 - 9.0 - Partly cloudy 5 - - - -
25/11:00pm 23.4 S 5 7 1011.2 - 8.4 - Partly cloudy 10 - - - -
25/10:30pm 24.0 SE 10 15 1011.3 - 7.4 - Partly cloudy 10 - - - -
25/10:27pm 24.2 ESE 10 15 1011.3 - 7.4 - Partly cloudy 10 - - - -
25/10:22pm 24.1 ESE 10 15 1011.2 - 7.4 - Partly cloudy 10 - - - -
25/10:00pm 24.6 ESE 7 13 1011.0 - 7.0 - Partly cloudy 5 - - - -
25/09:52pm 24.1 SE 6 10 1010.9 - 6.6 - Partly cloudy 4 - - - -
25/09:46pm 23.9 SSE 5 10 1010.9 - 6.2 - Partly cloudy 5 - - - -
25/09:30pm 23.7 SE 3 4 1010.5 - 5.6 - Partly cloudy 10 - - - -
25/09:00pm 23.7 SE 5 7 1009.9 - 4.6 - Partly cloudy 10 - - - -
25/08:30pm 24.3 SSE 7 9 1010.2 - 3.8 - Partly cloudy 10 - - - -
25/08:18pm 24.4 SSE 6 8 1010.2 - 3.6 - Partly cloudy 8 - - - -
25/08:00pm 24.2 SE 9 15 1010.4 - 3.4 - Partly cloudy 2 - - - -
25/07:56pm 24.3 SE 10 15 1010.4 - 2.0 - Partly cloudy 2 - - - -
25/07:52pm 24.5 ESE 9 15 1010.3 - 0.8 - Partly cloudy 5 - - - -
25/07:48pm 24.8 ESE 8 15 1010.2 - 0.2 - Partly cloudy 10 - - - -
25/07:32pm 24.7 ESE 13 23 1009.9 - 0.0 - Partly cloudy 5 - - - -
25/07:30pm 24.8 ESE 12 23 1009.9 - 0.0 - Partly cloudy 6 - - - -
25/07:21pm 25.6 SE 7 17 1009.4 - 0.0 - Partly cloudy 10 - - - -
25/07:00pm 25.7 SE 3 5 1009.0 - 0.0 - Partly cloudy 10 - - - -
25/06:30pm 25.8 SE 6 9 1008.7 - 0.0 - Partly cloudy 10 - - - -
25/06:00pm 25.6 SE 9 13 1008.0 - 0.0 - Cloudy 10 - - - -

Other Formats:

Comma delimited format used in spreadsheet applications
http://www.bom.gov.au/fwo/IDQ60701/IDQ60701.95283.axf

JavaScript Object Notation format (JSON) in row-major order
http://www.bom.gov.au/fwo/IDQ60701/IDQ60701.95283.json